Date,TemperatureHighF,TemperatureAvgF,TemperatureLowF,DewpointHighF,DewpointAvgF,DewpointLowF,HumidityHigh,HumidityAvg,HumidityLow,PressureMaxIn,PressureMinIn,WindSpeedMaxMPH,WindSpeedAvgMPH,GustSpeedMaxMPH,PrecipitationSumIn
2013-1-1,42,38,31,34,32,26,86,79,72,30.09,29.72,5,2,5,0.00
2013-1-2,40,30,25,26,18,-100,83,66,48,30.03,29.81,3,1,3,0.00
2013-1-3,37,28,18,24,20,14,87,71,57,30.03,29.91,7,2,7,0.00
2013-1-4,41,35,32,27,24,23,71,64,55,29.99,29.89,8,3,8,0.00
2013-1-5,43,35,31,28,25,22,86,67,52,30.17,29.94,8,2,8,0.00
2013-1-6,47,38,29,34,31,26,89,75,58,29.97,29.82,7,2,7,0.00
2013-1-7,46,38,28,33,30,24,88,71,56,30.23,29.95,5,1,5,0.00
2013-1-8,48,34,23,36,29,21,99,85,61,30.19,30.13,5,0,5,0.00
2013-1-9,47,36,27,44,33,26,100,92,70,30.18,30.01,6,1,6,0.00
2013-1-10,54,43,37,36,33,29,89,68,50,30.41,30.18,5,2,5,0.00
2013-1-11,44,40,35,42,37,32,100,90,76,30.28,29.91,7,1,7,0.00
2013-1-12,57,45,39,52,44,39,100,97,83,29.98,29.91,3,0,3,0.00
2013-1-13,52,47,41,52,47,41,100,100,100,29.91,29.76,3,0,3,0.00
2013-1-14,53,48,39,53,38,-100,100,83,65,30.13,29.75,5,1,5,0.00
2013-1-15,40,37,33,40,36,32,100,94,82,30.12,29.56,6,2,6,0.00
2013-1-16,40,36,33,40,36,33,100,100,100,29.56,29.30,7,1,7,0.00
2013-1-17,41,39,35,41,34,30,100,82,65,29.54,29.38,9,1,9,0.00
2013-1-18,39,33,27,32,20,13,87,60,38,29.90,29.47,8,3,8,0.00
2013-1-21,39,32,23,24,19,8,77,59,49,29.45,29.23,7,3,7,0.00
2013-1-22,25,19,14,9,2,-2,60,48,33,29.67,29.38,7,3,7,0.00
2013-1-23,27,19,11,6,3,0,67,50,33,29.73,29.52,7,2,7,0.00
2013-1-24,27,20,13,18,10,3,90,64,42,29.90,29.50,7,2,7,0.00
2013-1-25,21,18,16,19,11,4,92,74,50,29.91,29.46,7,1,7,0.00
2013-1-26,32,24,17,28,21,16,95,88,75,29.82,29.47,3,0,3,0.00
2013-1-27,37,29,19,24,20,13,87,71,52,29.98,29.82,5,1,5,0.00
2013-1-28,39,34,28,39,33,24,100,97,83,29.85,29.44,6,1,6,0.00
2013-1-29,67,51,39,59,49,39,100,93,76,29.51,29.35,4,1,4,0.00
2013-1-30,67,49,37,64,46,-100,100,98,92,29.35,28.64,15,2,15,0.00
2013-1-31,55,38,27,55,28,14,100,68,47,29.29,28.61,12,5,12,0.00
2013-2-1,29,25,20,24,13,6,90,61,45,29.75,29.23,9,3,17,0.00
2013-2-2,27,21,14,23,13,5,91,72,54,29.76,29.41,8,2,15,0.00
2013-2-3,34,27,20,30,24,18,100,90,62,29.41,29.21,7,2,11,0.00
2013-2-4,35,29,24,30,19,12,100,67,48,29.48,29.29,7,2,18,0.00
2013-2-5,36,32,29,36,32,29,100,99,97,29.34,29.25,1,0,11,0.00
2013-2-6,42,34,28,34,28,22,100,81,56,29.75,29.33,6,2,40,0.00
2013-2-7,38,32,24,30,25,20,94,78,60,29.82,29.61,7,1,12,0.00
2013-2-8,38,34,31,38,32,24,100,91,74,29.61,29.33,9,2,17,0.00
2013-2-9,41,32,26,23,20,17,76,63,43,29.93,29.52,13,3,23,0.00
2013-2-10,44,33,20,25,21,16,89,63,40,30.00,29.73,10,3,18,0.00
2013-2-11,58,45,35,51,39,25,100,82,33,29.73,29.22,9,2,14,0.00
2013-2-12,56,46,34,35,31,28,79,58,42,29.55,29.40,7,2,13,0.00
2013-2-13,42,34,27,36,31,25,100,90,69,29.50,29.23,8,1,8,0.00
2013-2-14,35,33,31,35,32,29,100,97,88,29.52,29.33,2,0,8,0.00
2013-3-6,40,37,34,36,34,33,100,89,79,29.78,29.51,15,5,15,0.00
2013-3-7,49,40,32,34,32,28,89,74,57,29.93,29.78,6,1,7,0.00
2013-3-8,50,40,34,34,30,28,89,69,52,30.06,29.91,12,3,12,0.00
2013-3-9,62,44,30,32,28,24,81,56,26,30.13,30.01,5,1,7,0.00
2013-3-10,64,48,29,36,30,25,90,55,28,30.06,29.93,14,4,14,0.00
2013-3-11,59,51,43,52,42,27,92,73,43,29.95,29.62,13,5,13,0.00
2013-3-12,57,51,41,55,46,32,100,84,66,29.73,29.51,15,4,15,0.00
2013-3-13,47,40,32,34,27,21,80,60,44,29.73,29.47,10,3,10,0.00
2013-3-14,45,37,31,23,20,18,67,52,37,29.69,29.61,12,4,12,0.00
2013-3-15,55,42,29,38,29,20,76,59,44,29.66,29.35,10,3,10,0.00
2013-3-16,48,39,34,41,36,34,100,91,65,29.51,29.26,11,3,11,0.00
2013-3-17,40,36,33,37,31,26,100,82,61,29.82,29.50,9,2,9,0.00
2013-3-18,35,33,32,33,28,22,100,83,63,29.86,29.47,10,2,10,0.00
2013-3-19,55,40,32,45,35,29,100,87,38,29.47,29.30,9,2,9,0.00
2013-3-22,43,36,30,24,22,22,71,58,45,29.61,29.51,12,2,12,0.00
2013-3-23,55,38,26,30,25,20,83,61,37,29.63,29.52,4,1,7,0.00
2013-3-24,43,35,27,34,26,21,98,72,51,29.60,29.24,8,1,8,0.00
2013-3-25,43,36,32,41,35,32,100,98,86,29.30,29.13,2,0,7,0.00
2013-3-26,52,41,30,40,34,30,100,80,50,29.60,29.30,5,1,7,0.00
2013-3-27,51,42,36,37,33,30,84,70,51,29.72,29.60,8,2,8,0.00
2013-3-28,51,43,37,36,34,32,82,71,53,29.83,29.67,7,2,7,0.00
2013-3-29,58,46,38,39,34,31,84,66,43,29.85,29.74,5,1,7,0.00
2013-3-30,62,46,30,38,30,25,95,60,27,29.83,29.69,5,1,7,0.00
2013-3-31,47,43,36,47,39,28,100,87,60,29.70,29.35,7,1,7,0.00
2013-4-1,59,46,36,50,37,21,100,74,47,29.59,29.35,8,2,8,0.00
2013-4-2,49,38,30,24,22,18,73,52,32,29.77,29.59,8,2,8,0.00
2013-4-3,51,36,26,25,20,16,77,55,28,29.97,29.77,6,2,7,0.00
2013-4-4,49,37,23,23,19,15,78,51,30,30.00,29.66,11,3,11,0.00
2013-4-5,67,49,35,37,30,21,86,51,29,29.67,29.44,6,2,7,0.00
2013-4-6,57,45,31,30,25,22,75,49,28,29.92,29.68,7,2,7,0.00
2013-4-7,70,55,41,48,39,24,71,56,43,29.82,29.53,15,6,15,0.00
2013-4-8,79,67,53,54,50,47,83,57,36,29.67,29.53,8,3,8,0.00
2013-4-9,87,72,58,62,56,50,76,59,40,29.69,29.52,10,2,10,0.00
2013-4-10,90,76,63,66,60,55,77,60,38,29.56,29.38,8,3,8,0.00
2013-4-11,85,70,59,66,61,57,96,75,47,29.51,29.34,13,3,13,0.00
2013-4-12,59,53,48,58,53,48,100,100,98,29.41,29.22,9,3,9,0.00
2013-4-13,68,55,47,48,40,34,100,59,33,29.58,29.42,6,2,7,0.00
2013-4-14,67,54,39,46,40,35,90,61,36,29.76,29.58,6,1,7,0.00
2013-4-15,65,59,52,55,50,43,78,72,65,29.86,29.72,9,4,9,0.00
2013-4-16,76,64,55,64,58,50,97,82,66,29.87,29.69,11,5,11,0.00
2013-4-17,69,62,57,65,60,56,100,90,74,29.84,29.73,10,2,10,0.00
2013-4-18,73,65,59,68,61,55,100,90,76,29.82,29.56,14,4,14,0.00
2013-4-19,74,64,52,69,62,46,100,92,80,29.56,29.18,15,6,15,0.00
2013-4-20,57,49,43,46,36,31,79,61,44,29.69,29.40,6,3,7,0.00
2013-4-21,53,46,40,33,32,28,74,58,38,30.16,30.11,4,1,7,0.00
2013-4-22,59,47,33,38,35,31,99,66,40,30.17,29.98,12,2,12,0.00
2013-4-23,60,47,33,46,40,32,100,78,56,30.01,29.71,5,1,7,0.00
2013-4-24,76,57,39,63,52,39,100,83,58,29.70,29.33,17,3,17,0.00
2013-4-25,66,53,42,44,37,33,77,56,31,29.90,29.66,5,2,7,0.00
2013-4-26,66,53,41,43,37,33,86,58,32,30.07,29.91,7,1,7,0.00
2013-4-27,73,57,37,48,42,34,100,61,34,30.02,29.87,7,2,7,0.00
2013-4-28,62,54,50,53,47,41,100,78,51,29.87,29.73,10,3,10,0.00
2013-4-29,60,56,52,60,55,52,100,99,93,29.73,29.65,6,1,7,0.00
2013-4-30,61,58,55,60,57,55,100,98,91,29.90,29.71,10,2,10,0.00
2013-5-1,73,60,50,54,45,37,100,63,29,30.01,29.90,7,2,7,0.00
2013-5-2,73,58,43,52,47,43,100,71,39,30.04,29.91,10,2,10,0.00
2013-5-3,71,58,44,51,48,44,100,71,44,29.99,29.87,8,3,13,0.00
2013-5-4,71,56,40,51,46,40,100,71,43,29.94,29.77,9,2,13,0.00
2013-5-5,67,54,44,47,44,42,95,71,44,29.85,29.73,8,2,13,0.00
2013-5-6,62,54,42,60,52,42,100,94,82,29.79,29.68,9,3,13,0.00
2013-5-7,62,60,58,62,60,58,100,100,98,29.69,29.57,11,6,17,0.00
2013-5-8,74,62,55,65,59,55,100,90,61,29.61,29.53,5,1,12,0.00
2013-5-9,78,63,54,64,59,54,100,89,59,29.61,29.52,5,1,8,0.00
2013-5-10,85,66,52,67,60,52,100,85,50,29.62,29.49,5,2,10,0.00
2013-6-7,68,67,65,68,67,65,100,100,100,29.47,29.40,5,1,10,0.00
2013-6-8,84,70,63,68,64,61,100,83,56,29.84,29.47,4,0,10,0.00
2013-6-9,83,71,59,72,66,59,100,87,64,29.93,29.82,8,1,10,0.00
2013-6-10,78,71,68,78,64,-100,100,95,96,29.84,29.51,10,1,10,0.00
2013-6-11,83,72,65,74,46,-100,100,77,68,29.55,29.51,6,2,10,0.00
2013-6-24,83,82,79,72,72,71,75,72,71,29.44,29.42,2,1,10,0.00
2013-7-14,95,87,77,79,77,75,97,73,59,29.45,29.38,5,1,10,0.00
2013-7-15,101,84,70,82,76,70,100,81,49,29.42,29.31,4,0,10,0.00
2013-7-16,97,84,75,81,77,74,100,80,51,29.38,29.30,5,0,10,0.00
2013-7-17,96,85,73,81,77,73,100,79,53,29.35,29.21,10,1,10,0.00
2013-7-18,102,88,74,82,79,74,100,79,53,29.25,29.11,2,0,10,0.00
2013-7-19,103,88,77,84,80,75,100,80,52,29.13,28.96,3,1,10,0.00
2013-9-22,75,65,52,64,54,50,95,69,48,29.56,29.42,8,1,10,0.00
2013-9-23,71,58,47,53,49,46,94,73,49,29.68,29.56,4,0,10,0.00
2013-9-24,78,58,42,56,49,42,100,78,40,29.71,29.53,2,0,10,0.00
2013-9-25,70,50,43,59,48,43,100,95,47,29.59,29.55,3,0,10,0.00
2013-10-16,69,66,63,65,64,63,100,93,83,29.44,29.32,4,1,10,0.00
2013-10-17,63,60,59,62,60,59,100,100,100,29.32,29.29,2,0,10,0.00